Time;durP1;ratioP1;P1;durP2;ratioP2;P2;SDS_P1;SDS_P2;PMS_P1;PMS_P2;Temp;Humidity;BMP_temperature;BMP_pressure;BME280_temperature;BME280_humidity;BME280_pressure;Samples;Min_cycle;Max_cycle;Signal;HPM_P1;HPM_P2
2022/05/18 00:01:26;;;;;;;;;13.60;11.60;;;;;17.63;100.00;99352.34;4991253;28;8883;-76
2022/05/18 00:03:55;;;;;;;;;12.60;11.60;;;;;17.56;100.00;99345.56;4994379;28;8911;-77
2022/05/18 00:06:23;;;;;;;;;15.00;14.80;;;;;17.56;100.00;99346.44;4993829;28;8885;-76
2022/05/18 00:08:52;;;;;;;;;19.00;16.00;;;;;17.65;100.00;99356.66;4992982;28;8880;-77
2022/05/18 00:11:21;;;;;;;;;17.00;16.60;;;;;17.56;100.00;99356.97;4989029;28;8877;-76
2022/05/18 00:13:53;;;;;;;;;15.60;15.20;;;;;17.47;100.00;99350.22;5005942;28;8944;-76
2022/05/18 00:16:25;;;;;;;;;18.00;16.00;;;;;17.34;100.00;99346.25;5000132;28;8966;-75
2022/05/18 00:18:55;;;;;;;;;11.00;9.80;;;;;17.25;100.00;99339.47;5011994;28;8893;-74
2022/05/18 00:21:24;;;;;;;;;18.40;18.40;;;;;17.25;100.00;99347.38;5008110;28;8948;-77
2022/05/18 00:23:52;;;;;;;;;17.00;15.20;;;;;17.04;100.00;99353.31;5009239;28;9709;-77
2022/05/18 00:26:21;;;;;;;;;16.60;16.20;;;;;17.12;100.00;99346.91;4972315;28;8999;-77
2022/05/18 00:28:49;;;;;;;;;14.60;13.40;;;;;16.98;100.00;99351.75;4955734;28;9999;-76
2022/05/18 00:31:20;;;;;;;;;22.40;20.20;;;;;16.87;100.00;99359.09;5005324;28;8891;-76
2022/05/18 00:33:50;;;;;;;;;17.20;16.80;;;;;16.85;100.00;99356.50;4989653;28;8861;-75
2022/05/18 00:36:19;;;;;;;;;19.80;18.20;;;;;16.87;100.00;99356.47;4988700;28;8861;-75
2022/05/18 00:38:47;;;;;;;;;16.40;16.40;;;;;16.83;100.00;99362.72;4989273;28;8857;-76
2022/05/18 00:41:19;;;;;;;;;14.80;14.60;;;;;16.86;100.00;99365.25;4990272;28;8970;-78
2022/05/18 00:43:50;;;;;;;;;17.40;16.20;;;;;16.85;100.00;99367.03;4971688;28;8903;-76
2022/05/18 00:46:19;;;;;;;;;14.00;14.00;;;;;16.81;100.00;99370.63;4986514;28;8874;-77
2022/05/18 00:48:54;;;;;;;;;14.00;14.00;;;;;16.76;100.00;99368.13;4986499;28;8909;-79
2022/05/18 00:51:29;;;;;;;;;14.60;11.60;;;;;16.82;100.00;99371.50;5000179;28;9065;-77
2022/05/18 00:54:05;;;;;;;;;13.60;13.60;;;;;16.79;100.00;99368.97;4957672;28;8909;-78
2022/05/18 00:56:40;;;;;;;;;12.60;12.60;;;;;16.69;100.00;99378.88;4969939;28;8908;-78
2022/05/18 00:59:15;;;;;;;;;14.60;14.00;;;;;16.74;100.00;99377.84;4967050;28;8873;-78
2022/05/18 01:01:44;;;;;;;;;14.40;12.80;;;;;16.69;100.00;99371.84;4967343;28;9002;-76
2022/05/18 01:04:16;;;;;;;;;14.60;14.60;;;;;16.70;100.00;99380.63;4935813;28;8864;-79
2022/05/18 01:06:50;;;;;;;;;14.40;12.80;;;;;16.67;100.00;99372.78;4970215;28;8911;-80
2022/05/18 01:09:22;;;;;;;;;13.40;13.40;;;;;16.60;100.00;99389.66;4986547;28;8866;-77
2022/05/18 01:11:51;;;;;;;;;13.40;11.20;;;;;16.65;100.00;99388.63;4970369;28;9719;-76
2022/05/18 01:14:23;;;;;;;;;16.40;16.40;;;;;16.73;100.00;99386.66;4954917;28;9584;-77
2022/05/18 01:16:53;;;;;;;;;15.00;14.00;;;;;16.88;100.00;99388.03;4951600;28;8887;-77
2022/05/18 01:19:36;;;;;;;;;14.80;14.80;;;;;16.70;100.00;99380.63;4952035;28;8892;-78
2022/05/18 01:22:12;;;;;;;;;15.40;13.80;;;;;16.65;100.00;99386.00;4957999;28;8889;-79
2022/05/18 01:24:52;;;;;;;;;18.20;17.60;;;;;16.68;100.00;99399.09;4985822;28;8860;-77
2022/05/18 01:27:22;;;;;;;;;17.20;16.80;;;;;16.72;100.00;99400.72;4945188;28;8868;-77
2022/05/18 01:29:52;;;;;;;;;22.60;20.40;;;;;16.75;100.00;99391.88;4974170;28;8880;-77
2022/05/18 01:32:21;;;;;;;;;17.60;17.20;;;;;16.69;100.00;99387.66;4990044;28;8999;-78
2022/05/18 01:34:51;;;;;;;;;17.20;15.60;;;;;16.59;100.00;99388.81;4973777;28;8868;-77
2022/05/18 01:37:20;;;;;;;;;21.60;21.00;;;;;16.57;100.00;99387.97;4965430;28;8868;-78
2022/05/18 01:39:52;;;;;;;;;21.20;20.60;;;;;16.48;100.00;99393.50;4925605;28;8857;-77
2022/05/18 01:42:30;;;;;;;;;29.25;26.75;;;;;16.52;100.00;99384.59;4989715;28;8861;-77
2022/05/18 01:44:59;;;;;;;;;27.00;23.75;;;;;16.64;100.00;99386.91;4935380;28;8857;-77
2022/05/18 01:47:33;;;;;;;;;25.25;24.75;;;;;16.84;100.00;99394.28;4935193;28;8866;-80
2022/05/18 01:50:03;;;;;;;;;26.80;26.40;;;;;17.03;100.00;99397.25;4951591;28;8998;-78
2022/05/18 01:52:33;;;;;;;;;27.50;27.50;;;;;17.22;100.00;99392.31;4982658;28;8942;-78
2022/05/18 01:55:02;;;;;;;;;29.75;28.50;;;;;17.35;100.00;99395.41;4926064;28;8962;-78
2022/05/18 01:57:34;;;;;;;;;29.25;28.75;;;;;17.47;100.00;99402.09;4973799;28;9756;-78
2022/05/18 02:00:05;;;;;;;;;30.75;29.00;;;;;17.49;100.00;99402.91;4973806;28;8928;-78
2022/05/18 02:02:40;;;;;;;;;29.00;28.25;;;;;17.58;100.00;99412.28;4973361;28;8866;-78
2022/05/18 02:05:10;;;;;;;;;31.25;29.50;;;;;17.62;100.00;99417.44;4968583;28;9634;-79
2022/05/18 02:07:39;;;;;;;;;25.80;23.20;;;;;17.71;100.00;99421.53;4934890;28;8873;-78
2022/05/18 02:10:08;;;;;;;;;24.50;22.75;;;;;17.61;100.00;99420.09;4940906;28;9003;-79
2022/05/18 02:12:39;;;;;;;;;29.50;27.75;;;;;17.77;100.00;99421.34;4931183;29;9716;-76
2022/05/18 02:15:08;;;;;;;;;25.80;25.00;;;;;17.85;100.00;99414.09;4916929;28;8886;-77
2022/05/18 02:17:38;;;;;;;;;30.50;29.50;;;;;17.97;100.00;99414.59;4903660;28;8892;-77
2022/05/18 02:20:08;;;;;;;;;31.50;29.50;;;;;17.99;98.90;99413.63;4950546;28;9650;-76
2022/05/18 02:22:37;;;;;;;;;29.50;29.25;;;;;18.01;99.13;99418.84;4946929;28;9647;-77
2022/05/18 02:25:06;;;;;;;;;30.25;27.50;;;;;18.11;99.72;99433.47;4988152;28;10100;-77
2022/05/18 02:27:35;;;;;;;;;34.75;32.75;;;;;18.09;97.41;99427.38;4973061;28;8874;-77
2022/05/18 02:30:08;;;;;;;;;23.50;22.25;;;;;18.09;96.94;99427.38;4989247;28;8874;-79
2022/05/18 02:32:37;;;;;;;;;31.50;30.25;;;;;18.02;96.78;99421.44;4967506;28;8907;-78
2022/05/18 02:35:07;;;;;;;;;30.25;28.25;;;;;18.03;97.62;99432.84;4950346;28;8872;-77
2022/05/18 02:37:36;;;;;;;;;26.75;25.00;;;;;18.01;96.15;99438.19;4887727;28;8983;-78
2022/05/18 02:40:06;;;;;;;;;30.00;29.00;;;;;17.85;96.46;99440.47;4950366;28;8967;-78
2022/05/18 02:42:35;;;;;;;;;28.25;27.75;;;;;17.80;95.70;99444.13;4960086;28;9754;-78
2022/05/18 02:45:07;;;;;;;;;26.60;25.60;;;;;17.82;95.99;99445.78;4969854;28;8991;-77
2022/05/18 02:47:36;;;;;;;;;23.25;21.25;;;;;17.71;93.52;99450.53;4953649;28;9018;-77
2022/05/18 02:50:06;;;;;;;;;23.40;23.00;;;;;17.56;91.77;99449.28;4964854;28;8985;-79
2022/05/18 02:52:36;;;;;;;;;18.60;18.60;;;;;17.67;92.18;99452.41;4937804;28;8988;-79
2022/05/18 02:57:53;;;;;;;;;23.40;21.40;;;;;17.64;91.29;99449.03;4989050;28;8861;-76
2022/05/18 03:00:23;;;;;;;;;22.00;20.40;;;;;17.65;90.17;99461.28;4951717;28;8859;-77
2022/05/18 03:02:51;;;;;;;;;22.20;21.40;;;;;17.79;92.40;99467.00;4939512;28;8867;-76
2022/05/18 03:05:20;;;;;;;;;25.40;25.00;;;;;17.77;91.08;99475.88;4990958;28;9003;-75
2022/05/18 03:07:49;;;;;;;;;24.80;23.20;;;;;17.68;92.27;99472.59;5005906;28;8890;-77
2022/05/18 03:10:18;;;;;;;;;29.60;27.60;;;;;17.71;92.14;99475.16;4987911;28;8841;-77
2022/05/18 03:12:47;;;;;;;;;27.80;27.20;;;;;17.71;91.56;99471.63;4998452;28;9005;-76
2022/05/18 03:15:15;;;;;;;;;29.75;28.00;;;;;17.58;94.84;99484.38;4997087;28;8916;-79
2022/05/18 03:17:46;;;;;;;;;30.00;28.25;;;;;17.31;95.80;99486.88;5023220;28;8862;-79
2022/05/18 03:23:33;;;;;;;;;28.25;26.25;;;;;17.41;95.52;99486.63;4974846;28;10205;-78
2022/05/18 03:25:54;;;;;;;;;25.75;25.50;;;;;17.29;93.80;99486.06;4991167;28;8889;-76
2022/05/18 03:28:23;;;;;;;;;22.40;22.40;;;;;17.37;94.40;99495.53;4958848;28;8862;-78
2022/05/18 03:30:51;;;;;;;;;25.60;23.40;;;;;17.30;94.45;99500.13;4958683;28;8851;-76
2022/05/18 03:33:22;;;;;;;;;29.60;27.60;;;;;17.20;92.33;99512.72;4986456;28;8861;-77
2022/05/18 03:35:52;;;;;;;;;22.60;22.60;;;;;17.12;94.59;99518.16;4987218;28;8853;-76
2022/05/18 03:38:21;;;;;;;;;28.50;27.00;;;;;17.19;93.69;99528.56;4987820;28;9089;-76
2022/05/18 03:40:50;;;;;;;;;28.00;26.25;;;;;17.25;93.32;99531.00;4989439;28;8868;-80
2022/05/18 03:43:19;;;;;;;;;27.00;23.40;;;;;16.89;95.29;99533.75;5000806;28;8837;-78
2022/05/18 03:45:48;;;;;;;;;27.60;25.00;;;;;17.01;95.85;99541.31;5007008;28;8849;-79
2022/05/18 03:48:19;;;;;;;;;27.40;25.00;;;;;16.95;95.00;99533.56;4989458;28;8877;-77
2022/05/18 03:50:50;;;;;;;;;27.80;26.60;;;;;17.06;94.75;99544.69;4996094;28;8902;-77
2022/05/18 03:53:19;;;;;;;;;24.75;23.50;;;;;17.21;94.57;99546.03;4991648;28;8857;-78
2022/05/18 03:55:47;;;;;;;;;26.20;24.60;;;;;17.28;93.00;99544.97;4991092;28;8893;-77
2022/05/18 03:58:16;;;;;;;;;26.40;24.00;;;;;17.23;92.66;99554.78;4991312;28;8849;-77
2022/05/18 04:00:47;;;;;;;;;24.60;24.60;;;;;17.24;93.07;99560.91;4988961;28;8880;-78
2022/05/18 04:03:18;;;;;;;;;26.00;24.80;;;;;17.26;90.79;99557.34;4989952;28;8890;-77
2022/05/18 04:05:51;;;;;;;;;19.40;19.40;;;;;17.31;91.68;99570.38;4988400;28;8857;-79
2022/05/18 04:08:20;;;;;;;;;25.20;24.60;;;;;17.33;90.79;99568.56;4987419;28;9014;-76
2022/05/18 04:10:48;;;;;;;;;29.40;25.80;;;;;17.34;90.71;99579.06;4990161;28;8936;-78
2022/05/18 04:13:20;;;;;;;;;28.00;24.75;;;;;17.19;90.23;99582.13;4988029;28;8876;-76
2022/05/18 04:15:49;;;;;;;;;24.40;23.60;;;;;17.24;91.14;99590.78;4989295;28;8984;-78
2022/05/18 04:18:18;;;;;;;;;24.20;22.40;;;;;17.24;90.00;99593.41;4971389;28;8954;-79
2022/05/18 04:20:47;;;;;;;;;21.60;21.60;;;;;17.28;90.84;99600.31;4994964;28;8864;-79
2022/05/18 04:23:17;;;;;;;;;26.25;26.00;;;;;17.36;90.12;99600.13;4988243;28;8849;-77
2022/05/18 04:25:46;;;;;;;;;30.00;30.00;;;;;17.36;89.55;99605.38;5020212;28;8881;-79
2022/05/18 04:28:15;;;;;;;;;22.80;19.60;;;;;17.30;89.90;99606.41;5025879;28;8900;-77
2022/05/18 04:30:46;;;;;;;;;26.00;24.20;;;;;17.33;89.16;99608.09;5009750;28;8861;-79
2022/05/18 04:33:18;;;;;;;;;24.40;23.00;;;;;17.10;88.17;99620.09;5025974;28;8916;-78
2022/05/18 04:35:48;;;;;;;;;21.00;21.00;;;;;17.02;88.63;99629.13;5009118;28;9016;-77
2022/05/18 04:38:22;;;;;;;;;24.20;23.40;;;;;17.08;87.77;99623.69;5009169;28;8857;-78
2022/05/18 04:40:57;;;;;;;;;20.60;19.00;;;;;16.97;86.84;99631.00;4993744;28;8854;-80
2022/05/18 04:43:26;;;;;;;;;18.80;17.60;;;;;16.99;86.83;99640.59;5013437;28;8855;-76
2022/05/18 04:45:55;;;;;;;;;21.20;20.00;;;;;16.85;86.63;99637.47;5031428;28;8870;-75
2022/05/18 04:48:24;;;;;;;;;20.00;18.20;;;;;16.87;85.68;99651.47;4961094;28;8864;-77
2022/05/18 04:50:53;;;;;;;;;19.00;18.60;;;;;16.79;84.80;99650.75;5010683;28;8879;-77
2022/05/18 04:53:23;;;;;;;;;15.40;15.40;;;;;16.68;82.96;99645.75;5015713;28;8863;-77
2022/05/18 04:55:52;;;;;;;;;18.00;17.60;;;;;16.73;84.44;99660.53;5012003;28;8895;-75
2022/05/18 04:58:21;;;;;;;;;19.00;17.60;;;;;16.63;82.28;99644.97;5003674;28;8850;-76
2022/05/18 05:00:58;;;;;;;;;18.80;18.20;;;;;16.69;83.20;99661.50;5008497;28;8947;-77
2022/05/18 05:03:27;;;;;;;;;13.40;13.40;;;;;16.69;84.41;99665.88;4939553;28;8881;-76
2022/05/18 05:06:01;;;;;;;;;18.00;17.40;;;;;16.84;83.57;99664.69;4990079;28;8857;-75
2022/05/18 05:08:34;;;;;;;;;18.20;17.20;;;;;16.88;83.17;99674.25;4989287;28;8876;-76
2022/05/18 05:11:03;;;;;;;;;20.20;19.80;;;;;16.84;82.30;99678.75;4988821;28;8849;-75
2022/05/18 05:13:32;;;;;;;;;17.60;15.60;;;;;16.75;81.18;99676.28;4994992;28;8910;-76
2022/05/18 05:16:03;;;;;;;;;17.40;17.40;;;;;16.86;81.52;99694.50;5008089;28;8869;-76
2022/05/18 05:18:32;;;;;;;;;17.40;17.40;;;;;16.95;82.26;99692.50;5006511;28;8896;-77
2022/05/18 05:21:02;;;;;;;;;17.40;14.80;;;;;16.79;79.23;99698.16;5006060;28;8850;-76
2022/05/18 05:23:32;;;;;;;;;16.20;16.00;;;;;16.92;80.20;99704.91;4989911;28;8977;-77
2022/05/18 05:26:02;;;;;;;;;16.20;16.20;;;;;16.87;78.69;99706.78;4957057;28;9663;-76
2022/05/18 05:28:31;;;;;;;;;17.60;15.80;;;;;16.83;76.63;99707.75;4985406;28;8920;-77
2022/05/18 05:31:02;;;;;;;;;18.20;18.20;;;;;16.91;77.87;99721.59;5006120;28;8878;-75
2022/05/18 05:33:32;;;;;;;;;17.20;15.80;;;;;16.99;76.42;99727.53;5006585;28;8984;-76
2022/05/18 05:36:01;;;;;;;;;15.00;14.60;;;;;17.20;77.05;99734.09;5006757;28;8862;-75
2022/05/18 05:38:31;;;;;;;;;16.80;14.80;;;;;17.19;74.04;99720.94;5007438;28;8870;-76
2022/05/18 05:41:01;;;;;;;;;12.40;12.40;;;;;17.04;73.30;99744.09;4998297;28;8872;-75
2022/05/18 05:43:31;;;;;;;;;16.40;15.80;;;;;17.23;73.55;99741.03;4987756;28;8996;-76
2022/05/18 05:46:06;;;;;;;;;13.40;12.60;;;;;17.33;72.17;99746.06;4958656;28;8900;-76
2022/05/18 05:48:35;;;;;;;;;10.80;10.80;;;;;17.43;70.70;99749.31;5007784;28;8870;-76
2022/05/18 05:51:05;;;;;;;;;15.80;13.20;;;;;17.51;71.08;99749.13;5005221;28;8948;-77
2022/05/18 05:53:35;;;;;;;;;9.80;9.80;;;;;17.58;68.30;99755.09;5016102;28;8856;-76
2022/05/18 05:56:04;;;;;;;;;11.20;10.60;;;;;17.72;68.70;99766.16;4970991;28;8857;-77
2022/05/18 05:58:33;;;;;;;;;9.20;9.20;;;;;17.49;64.66;99764.13;4988565;28;8841;-77
2022/05/18 06:01:03;;;;;;;;;7.00;7.00;;;;;17.67;64.71;99770.66;4970858;28;8911;-76
2022/05/18 06:03:33;;;;;;;;;12.80;11.60;;;;;17.59;61.46;99746.28;5011443;28;8872;-77
2022/05/18 06:06:02;;;;;;;;;11.60;10.00;;;;;17.40;60.40;99770.47;5010449;28;8858;-72
2022/05/18 06:08:32;;;;;;;;;7.00;7.00;;;;;17.53;62.21;99786.84;5009651;28;8854;-71
2022/05/18 06:11:02;;;;;;;;;9.00;8.00;;;;;17.55;60.61;99790.31;5003478;28;8852;-75
2022/05/18 06:13:32;;;;;;;;;8.20;8.20;;;;;17.63;57.83;99792.75;5015905;28;8835;-76
2022/05/18 06:16:01;;;;;;;;;10.20;9.00;;;;;17.66;56.26;99763.69;4969868;28;8950;-74
2022/05/18 06:18:31;;;;;;;;;10.40;9.80;;;;;17.64;57.64;99794.50;4989385;28;8872;-75
2022/05/18 06:21:00;;;;;;;;;7.00;6.40;;;;;17.67;54.88;99786.50;5000001;28;8900;-74
2022/05/18 06:23:30;;;;;;;;;8.80;8.20;;;;;17.73;54.94;99810.06;4984533;28;8903;-76
2022/05/18 06:26:05;;;;;;;;;7.00;7.00;;;;;17.78;53.66;99813.47;5008231;28;8892;-76
2022/05/18 06:28:36;;;;;;;;;8.20;6.80;;;;;17.84;52.59;99815.97;5009120;28;8889;-76
2022/05/18 06:31:05;;;;;;;;;7.00;7.00;;;;;17.92;53.24;99831.63;5011420;28;8898;-77
2022/05/18 06:33:34;;;;;;;;;7.00;7.00;;;;;18.04;54.73;99814.59;4961484;28;9673;-73
2022/05/18 06:36:04;;;;;;;;;8.80;7.60;;;;;18.21;51.82;99822.91;5012302;28;8830;-75
2022/05/18 06:38:33;;;;;;;;;7.60;6.80;;;;;18.16;48.72;99830.09;4997083;28;8877;-74
2022/05/18 06:43:49;;;;;;;;;6.20;6.20;;;;;18.35;50.21;99834.88;4997286;28;8998;-75
2022/05/18 06:46:18;;;;;;;;;6.20;6.20;;;;;18.33;48.54;99842.81;5007907;28;8981;-76
2022/05/18 06:48:48;;;;;;;;;7.00;5.80;;;;;18.27;48.30;99835.94;5007737;28;8901;-74
2022/05/18 06:51:21;;;;;;;;;4.00;4.00;;;;;18.08;44.89;99842.63;4997890;28;8977;-78
2022/05/18 06:53:52;;;;;;;;;5.20;5.20;;;;;18.27;46.76;99854.41;4996855;28;8901;-75
2022/05/18 06:56:24;;;;;;;;;7.20;7.20;;;;;18.44;47.17;99861.03;5008226;28;8953;-76
2022/05/18 06:58:54;;;;;;;;;10.00;10.00;;;;;18.45;45.16;99857.44;4974594;28;8912;-77
2022/05/18 07:01:24;;;;;;;;;5.00;5.00;;;;;18.42;44.79;99850.50;5009361;28;8877;-75
2022/05/18 07:03:54;;;;;;;;;4.60;3.60;;;;;18.37;43.74;99862.94;5009715;28;8973;-77
2022/05/18 07:06:30;;;;;;;;;4.80;4.20;;;;;18.28;43.01;99852.66;5009862;28;8897;-76
2022/05/18 07:08:58;;;;;;;;;5.20;5.20;;;;;18.23;41.76;99851.91;5009248;28;8988;-75
2022/05/18 07:11:29;;;;;;;;;4.60;4.60;;;;;18.20;42.31;99871.31;5009812;28;8995;-75
2022/05/18 07:13:58;;;;;;;;;4.00;4.00;;;;;18.23;42.04;99858.06;5010897;28;8865;-76
2022/05/18 07:16:28;;;;;;;;;4.20;4.20;;;;;18.23;40.99;99868.63;4975808;28;8885;-76
2022/05/18 07:18:58;;;;;;;;;3.40;3.40;;;;;18.28;43.53;99887.00;5025309;28;8874;-75
2022/05/18 07:21:27;;;;;;;;;4.40;4.40;;;;;18.36;44.10;99892.91;5009437;28;8846;-75
2022/05/18 07:23:57;;;;;;;;;4.00;4.00;;;;;18.33;40.45;99884.22;5009223;28;8858;-75
2022/05/18 07:26:27;;;;;;;;;2.80;2.80;;;;;18.40;40.16;99893.72;5007492;28;8870;-76
2022/05/18 07:28:58;;;;;;;;;3.60;3.60;;;;;18.37;38.93;99897.28;4945571;28;8878;-75
2022/05/18 07:31:29;;;;;;;;;5.80;3.40;;;;;18.39;38.71;99905.16;4920273;28;9029;-74
2022/05/18 07:34:19;;;;;;;;;3.20;3.20;;;;;18.38;38.28;99914.00;4951643;28;8875;-75
2022/05/18 07:36:47;;;;;;;;;3.00;3.00;;;;;18.35;37.36;99908.78;4971592;28;8895;-74
2022/05/18 07:39:15;;;;;;;;;3.00;3.00;;;;;18.43;39.39;99915.63;4968678;28;9009;-74
2022/05/18 07:41:44;;;;;;;;;3.40;3.40;;;;;18.47;38.61;99917.25;4968376;28;8871;-75
2022/05/18 07:44:14;;;;;;;;;4.00;3.60;;;;;18.54;38.67;99907.38;4960794;28;8867;-76
2022/05/18 07:46:43;;;;;;;;;2.00;2.00;;;;;18.37;36.87;99917.53;4971007;28;8875;-76
2022/05/18 07:49:12;;;;;;;;;4.20;3.80;;;;;18.48;38.66;99913.69;4970188;28;8849;-75
2022/05/18 07:51:40;;;;;;;;;5.20;5.20;;;;;18.59;37.23;99928.41;4988009;28;8863;-74
2022/05/18 07:54:09;;;;;;;;;3.60;3.60;;;;;18.75;37.92;99937.66;4944546;28;8888;-72
2022/05/18 07:56:37;;;;;;;;;2.00;2.00;;;;;18.81;37.47;99949.81;4973505;28;8870;-76
2022/05/18 07:59:07;;;;;;;;;3.60;3.60;;;;;18.86;36.43;99918.84;4973942;28;8909;-75
2022/05/18 08:01:39;;;;;;;;;3.00;3.00;;;;;18.78;36.18;99940.19;5003957;28;8898;-75
2022/05/18 08:04:08;;;;;;;;;4.60;4.00;;;;;18.57;35.49;99941.66;4970462;28;8852;-76
2022/05/18 08:06:36;;;;;;;;;4.00;4.00;;;;;18.47;34.75;99935.75;4968433;28;8857;-79
2022/05/18 08:09:05;;;;;;;;;2.60;2.60;;;;;18.52;34.31;99980.50;4986795;28;8868;-76
2022/05/18 08:17:22;;;;;;;;;3.40;3.40;;;;;18.70;37.12;99985.31;4894297;29;8969;-78
2022/05/18 08:19:51;;;;;;;;;2.00;2.00;;;;;18.69;34.99;99983.59;4894238;29;8886;-77
2022/05/18 08:22:20;;;;;;;;;3.20;3.20;;;;;18.82;35.29;100004.41;4909116;29;8878;-79
2022/05/18 08:24:49;;;;;;;;;5.60;4.80;;;;;18.98;34.68;100011.03;4916941;29;9637;-76
2022/05/18 08:27:18;;;;;;;;;3.20;3.20;;;;;19.11;36.12;100015.97;4896089;29;8869;-76
2022/05/18 08:29:46;;;;;;;;;5.00;5.00;;;;;19.05;34.07;100020.53;4894724;29;8895;-76
2022/05/18 08:32:15;;;;;;;;;8.80;8.80;;;;;19.11;35.28;100027.44;4912798;29;8855;-78
2022/05/18 08:34:45;;;;;;;;;2.40;2.40;;;;;19.05;34.46;100028.47;4909178;29;8863;-78
2022/05/18 08:37:13;;;;;;;;;4.40;3.80;;;;;19.07;35.03;100041.59;4901212;28;8856;-77
2022/05/18 08:39:42;;;;;;;;;3.40;3.40;;;;;19.12;34.84;100038.84;4931492;28;8888;-76
2022/05/18 08:42:11;;;;;;;;;3.60;3.60;;;;;19.27;36.37;100051.66;4947287;28;8849;-76
2022/05/18 08:44:40;;;;;;;;;3.00;3.00;;;;;19.36;34.27;100046.09;4954967;28;8880;-78
2022/05/18 08:47:13;;;;;;;;;5.20;4.80;;;;;19.46;35.59;100059.91;4990073;28;8960;-77
2022/05/18 08:49:55;;;;;;;;;3.60;3.60;;;;;19.68;37.62;100066.31;5007853;28;8884;-76
2022/05/18 08:52:41;;;;;;;;;7.20;5.20;;;;;19.71;34.08;100051.25;5008569;28;8862;-80
2022/05/18 08:55:37;;;;;;;;;2.60;2.60;;;;;19.64;33.15;100062.03;5008444;28;8846;-77
2022/05/18 08:58:12;;;;;;;;;2.40;2.40;;;;;19.52;32.45;100064.16;5006914;28;9093;-78
2022/05/18 09:00:45;;;;;;;;;3.00;2.80;;;;;19.65;34.23;100076.13;5006663;28;8862;-80
2022/05/18 09:03:20;;;;;;;;;3.20;3.20;;;;;19.83;33.65;100078.25;5003287;28;8855;-79
2022/05/18 09:05:57;;;;;;;;;3.00;2.40;;;;;19.77;29.69;100065.22;5003863;28;8868;-76
2022/05/18 09:08:33;;;;;;;;;4.20;2.00;;;;;19.48;28.68;100095.13;4973681;28;8854;-75
2022/05/18 09:11:06;;;;;;;;;4.00;2.80;;;;;19.41;28.76;100089.16;5001470;28;8858;-77
2022/05/18 09:13:38;;;;;;;;;3.20;3.00;;;;;19.67;30.45;100095.47;4990239;28;8991;-73
2022/05/18 09:16:24;;;;;;;;;2.20;2.20;;;;;19.71;30.11;100097.09;5003634;28;9596;-76
2022/05/18 09:19:03;;;;;;;;;4.40;3.40;;;;;19.60;31.89;100102.72;5008315;28;8851;-74
2022/05/18 09:21:45;;;;;;;;;2.40;2.40;;;;;19.79;31.67;100097.81;4986332;28;8855;-75
2022/05/18 09:24:28;;;;;;;;;3.00;3.00;;;;;19.93;30.20;100107.09;4986330;28;8878;-72
2022/05/18 09:27:08;;;;;;;;;5.00;4.40;;;;;20.14;32.42;100101.16;4985489;28;8870;-75
2022/05/18 09:29:46;;;;;;;;;2.00;2.00;;;;;20.13;30.43;100095.88;4985800;28;8850;-75
2022/05/18 09:32:39;;;;;;;;;4.00;4.00;;;;;20.01;27.53;100108.59;4985435;28;8901;-74
2022/05/18 09:35:33;;;;;;;;;2.00;2.00;;;;;19.81;27.66;100119.78;4973603;28;8866;-78
2022/05/18 09:38:09;;;;;;;;;2.80;2.80;;;;;19.98;28.24;100118.41;4990131;28;8862;-76
2022/05/18 09:40:43;;;;;;;;;2.00;2.00;;;;;20.00;27.60;100119.22;4912324;28;8869;-75
2022/05/18 09:43:19;;;;;;;;;3.00;2.40;;;;;20.09;31.23;100123.38;4970011;28;8860;-78
2022/05/18 09:45:50;;;;;;;;;3.00;3.00;;;;;20.05;29.67;100134.06;4938767;28;8858;-75
2022/05/18 09:48:28;;;;;;;;;1.00;1.00;;;;;20.01;29.93;100119.19;4984684;28;8893;-75
2022/05/18 09:50:59;;;;;;;;;3.20;3.20;;;;;19.70;28.42;100119.19;4977168;28;8935;-76
2022/05/18 09:53:30;;;;;;;;;3.60;2.80;;;;;19.83;27.53;100117.09;4986174;28;8857;-77
2022/05/18 09:55:59;;;;;;;;;2.40;2.00;;;;;19.73;27.46;100129.72;4969267;28;8853;-76
2022/05/18 09:58:33;;;;;;;;;2.20;2.20;;;;;19.74;26.00;100122.66;4993088;28;9733;-76
2022/05/18 10:09:43;;;;;;;;;2.60;2.20;;;;;19.96;28.34;100138.75;4987211;28;8845;-72
2022/05/18 10:12:22;;;;;;;;;4.00;1.60;;;;;19.96;27.34;100142.31;5001458;28;8885;-72
2022/05/18 10:14:58;;;;;;;;;2.00;2.00;;;;;19.81;25.79;100142.72;5002182;28;8884;-71
2022/05/18 10:17:33;;;;;;;;;2.00;2.00;;;;;19.72;26.15;100140.34;4991536;28;8857;-72
2022/05/18 10:20:06;;;;;;;;;1.40;1.40;;;;;19.84;26.02;100151.44;4972781;28;9019;-72
2022/05/18 10:22:39;;;;;;;;;3.00;1.80;;;;;19.64;25.09;100148.47;4989839;28;9645;-72
2022/05/18 10:25:13;;;;;;;;;1.60;1.60;;;;;19.58;26.04;100154.78;5006265;28;8872;-71
2022/05/18 10:27:46;;;;;;;;;2.00;2.00;;;;;19.59;25.59;100145.97;4991070;28;8860;-71
2022/05/18 10:30:18;;;;;;;;;2.00;2.00;;;;;19.73;26.20;100150.03;4991257;28;8857;-71
2022/05/18 10:32:55;;;;;;;;;1.00;1.00;;;;;19.88;26.59;100143.44;4991193;28;8861;-72
2022/05/18 10:35:36;;;;;;;;;1.40;1.40;;;;;19.99;27.08;100152.78;4991268;28;8856;-72
2022/05/18 10:38:18;;;;;;;;;0.40;0.40;;;;;20.19;26.17;100138.09;4968968;28;8836;-71
2022/05/18 10:40:49;;;;;;;;;1.80;1.20;;;;;20.08;26.32;100143.72;4968979;28;8872;-70
2022/05/18 10:43:29;;;;;;;;;2.40;2.00;;;;;20.14;26.44;100155.91;4969230;28;8927;-71
2022/05/18 10:46:19;;;;;;;;;2.40;2.40;;;;;20.29;24.83;100139.53;4969002;28;9632;-71
2022/05/18 10:48:55;;;;;;;;;3.00;3.00;;;;;20.33;26.58;100146.47;4969203;28;8845;-72
2022/05/18 10:51:32;;;;;;;;;3.00;3.00;;;;;20.14;25.53;100132.91;4968761;28;8892;-73
2022/05/18 10:54:12;;;;;;;;;3.40;3.40;;;;;20.13;22.66;100133.84;4969310;28;8865;-72
2022/05/18 10:56:44;;;;;;;;;1.60;1.60;;;;;20.16;24.43;100154.94;4968383;28;8938;-71
2022/05/18 10:59:24;;;;;;;;;3.20;2.80;;;;;20.04;24.76;100150.88;4969081;28;8975;-75
2022/05/18 11:01:59;;;;;;;;;2.80;2.20;;;;;20.11;26.22;100155.97;4952482;28;8873;-74
2022/05/18 11:04:44;;;;;;;;;3.00;2.00;;;;;20.21;24.40;100155.66;4943392;28;8862;-70
2022/05/18 11:07:12;;;;;;;;;2.00;1.80;;;;;20.20;24.51;100145.97;4969245;28;9686;-71
2022/05/18 11:09:47;;;;;;;;;2.20;2.20;;;;;20.47;24.57;100127.47;4969033;28;8884;-70
2022/05/18 11:12:35;;;;;;;;;1.40;1.40;;;;;20.47;23.92;100126.63;4937242;28;8925;-72
2022/05/18 11:15:08;;;;;;;;;3.80;2.80;;;;;20.58;24.51;100135.09;4973771;28;8896;-72
2022/05/18 11:17:55;;;;;;;;;3.20;3.20;;;;;20.42;24.56;100132.94;5006271;28;8915;-73
2022/05/18 11:20:32;;;;;;;;;2.00;2.00;;;;;20.47;25.42;100116.88;4989844;28;10015;-73
2022/05/18 11:23:13;;;;;;;;;4.00;3.00;;;;;20.32;25.35;100128.84;4989821;28;8880;-76
2022/05/18 11:25:58;;;;;;;;;3.80;3.80;;;;;20.46;25.74;100131.06;4990272;28;8856;-73
2022/05/18 11:28:58;;;;;;;;;2.80;2.80;;;;;20.87;25.07;100133.28;4990115;28;8873;-73
2022/05/18 11:31:52;;;;;;;;;5.20;4.00;;;;;20.95;23.22;100142.72;4990049;28;8973;-73
2022/05/18 11:34:29;;;;;;;;;1.00;1.00;;;;;21.02;24.52;100120.41;4929151;29;8847;-74
2022/05/18 11:37:16;;;;;;;;;7.60;7.40;;;;;20.99;25.98;100109.03;4929468;29;8867;-72
2022/05/18 11:39:55;;;;;;;;;3.00;2.40;;;;;21.28;23.92;100115.09;4948508;28;9031;-74
2022/05/18 11:42:36;;;;;;;;;2.00;2.00;;;;;21.51;22.19;100107.22;4947468;28;9722;-73
2022/05/18 11:45:17;;;;;;;;;1.60;1.20;;;;;21.71;21.55;100103.81;4916498;28;9611;-73
2022/05/18 11:48:06;;;;;;;;;3.00;3.00;;;;;21.46;22.89;100118.91;4931998;28;9019;-73
2022/05/18 11:50:45;;;;;;;;;2.00;1.40;;;;;21.70;23.26;100114.47;4947888;28;8868;-74
2022/05/18 11:53:27;;;;;;;;;1.80;1.80;;;;;22.05;20.81;100097.19;4945491;28;9694;-73
2022/05/18 11:56:13;;;;;;;;;1.20;1.20;;;;;22.38;21.56;100103.00;4947136;28;8959;-74
2022/05/18 11:59:16;;;;;;;;;1.00;1.00;;;;;22.88;21.88;100104.47;4947828;28;8966;-73
2022/05/18 12:01:56;;;;;;;;;1.60;1.60;;;;;23.03;18.59;100100.34;4931617;28;8868;-72
2022/05/18 12:04:59;;;;;;;;;1.80;1.60;;;;;23.33;17.68;100103.47;4932414;28;8922;-76
2022/05/18 12:07:45;;;;;;;;;1.80;1.80;;;;;22.78;15.37;100109.34;4945523;28;8873;-73
2022/05/18 12:10:25;;;;;;;;;1.80;1.80;;;;;22.35;16.42;100094.28;4947861;28;8881;-73
2022/05/18 12:13:02;;;;;;;;;0.60;0.60;;;;;22.97;18.43;100104.09;5000552;28;8841;-74
2022/05/18 12:15:42;;;;;;;;;3.80;2.00;;;;;23.42;16.79;100102.19;4989529;28;8864;-74
2022/05/18 12:18:17;;;;;;;;;1.00;1.00;;;;;23.72;17.75;100096.38;4988911;28;8873;-70